Accueil
METAR-TAF:

METAR-TAF

Aéroports :

Djibouti, Djibouti

Aéroport international Ambouli

latitude: 11-33N, longitude: 043-10E, altitude: 49 m

Observation

Le bulletin a été fait il y a 8 heures et 12 minutes, à 11:00 UTC
Vent 10 kt de est/nord-est
Température 33°C
Humidité 67%
Pression
Visibilité 10 km ou plus
Quelques nuages à une hauteur de 2300 ft

METAR: HDAM 261100Z 06010KT 9999 FEW023 33/26 Q107

Heure: 22:12 (19:12 UTC)

Prévision

Le bulletin a été fait il y a 2 heures et 12 minutes, à 17:00 UTC
Prévision valable du 26 à 18 UTC au 27 à 18 UTC
Vent 3 kt de direction variable
Visibilité 10 km ou plus
Nuages épars à une hauteur de 2000 ft
Evoluant progressivement
du 27 à 06 UTC au 27 à 12 UTC
Vent 10 kt de est
Quelques nuages à une hauteur de 2300 ft

TAF: HDAM 261700Z 2618/2718 VRB03KT 9999 SCT020 BECMG 2706/2712 08010KT FEW023

Observations et prévisions météorologiques de plus de 4000 aéroports (messages METAR et TAF).

Les stations disponibles sont représentées par des disques jaunes et rouges sur la carte.

Passer la souris dessus pour voir le nom de la station.

Cliquer dessus pour voir les observations et prévisions météorologiques.

Pour changer de carte: cliquez sur les boutons verts avec une croix noire pour zoomer, sur le bouton vert avec un tiret pour effectuer un zoom arrière, ou sur les flèches vertes pour les cartes adjacentes.


METAR-TAF: